N4693 KLAS-KLAX
Flight info
| Callsign | N4693 |
|---|---|
| Flight time | 1h 9m |
| Altitude | 17000 |
| Route | CRESO V538 GFS/N0314F280 WNCHL BOGET2 |
| Aircraft | TBM9/L-SDFGRWY/S |
Departure
| Time | 2026-05-05 22:53 |
|---|---|
| Airport | Harry Reid International Airport (KLAS) |
Arrival
| Time | 2026-05-06 00:02 |
|---|---|
| Airport | Los Angeles International Airport (KLAX) |
| Time | Latitude | Longitude | Altitude | Speed | Heading |
|---|---|---|---|---|---|
| 2026-05-05 22:12 | 36.08348 | -115.16914 | 2181 ft | 0 kts | 118° |
| 2026-05-05 22:47 | 36.08341 | -115.16900 | 2184 ft | 5 kts | 123° |
| 2026-05-05 22:47 | 36.08313 | -115.16883 | 2182 ft | 6 kts | 269° |
| 2026-05-05 22:47 | 36.08266 | -115.16951 | 2182 ft | 15 kts | 225° |
| 2026-05-05 22:48 | 36.08158 | -115.17012 | 2182 ft | 12 kts | 166° |
| 2026-05-05 22:48 | 36.08152 | -115.17009 | 2182 ft | 0 kts | 121° |
| 2026-05-05 22:49 | 36.08152 | -115.17008 | 2182 ft | 0 kts | 121° |
| 2026-05-05 22:49 | 36.08148 | -115.16989 | 2185 ft | 6 kts | 90° |
| 2026-05-05 22:49 | 36.08108 | -115.16950 | 2182 ft | 14 kts | 206° |
| 2026-05-05 22:49 | 36.08008 | -115.17007 | 2184 ft | 17 kts | 205° |
| 2026-05-05 22:50 | 36.07901 | -115.17069 | 2183 ft | 18 kts | 203° |
| 2026-05-05 22:50 | 36.07786 | -115.17128 | 2183 ft | 18 kts | 175° |
| 2026-05-05 22:50 | 36.07660 | -115.17122 | 2183 ft | 17 kts | 166° |
| 2026-05-05 22:50 | 36.07637 | -115.17030 | 2184 ft | 11 kts | 85° |
| 2026-05-05 22:51 | 36.07685 | -115.16953 | 2184 ft | 12 kts | 29° |
| 2026-05-05 22:51 | 36.07713 | -115.16937 | 2185 ft | 0 kts | 24° |
| 2026-05-05 22:52 | 36.07784 | -115.16897 | 2186 ft | 39 kts | 25° |
| 2026-05-05 22:52 | 36.08232 | -115.16641 | 2183 ft | 101 kts | 28° |
| 2026-05-05 22:52 | 36.08967 | -115.16188 | 2396 ft | 126 kts | 26° |
| 2026-05-05 22:53 | 36.09498 | -115.15861 | 2686 ft | 130 kts | 25° |
| 2026-05-05 22:53 | 36.10355 | -115.15346 | 3069 ft | 139 kts | 26° |
| 2026-05-05 22:53 | 36.11236 | -115.14717 | 3370 ft | 152 kts | 30° |
| 2026-05-05 22:53 | 36.12088 | -115.13939 | 3794 ft | 156 kts | 40° |
| 2026-05-05 22:54 | 36.12904 | -115.12997 | 4268 ft | 167 kts | 42° |
| 2026-05-05 22:54 | 36.13825 | -115.11923 | 4321 ft | 200 kts | 42° |
| 2026-05-05 22:54 | 36.14947 | -115.10651 | 4232 ft | 234 kts | 41° |
| 2026-05-05 22:54 | 36.16187 | -115.09266 | 4078 ft | 245 kts | 41° |
| 2026-05-05 22:55 | 36.17378 | -115.07732 | 3966 ft | 255 kts | 56° |
| 2026-05-05 22:55 | 36.17914 | -115.05631 | 4020 ft | 255 kts | 93° |
| 2026-05-05 22:55 | 36.17455 | -115.03567 | 4733 ft | 248 kts | 125° |
| 2026-05-05 22:55 | 36.16261 | -115.02158 | 5449 ft | 231 kts | 157° |
| 2026-05-05 22:56 | 36.14763 | -115.01835 | 6178 ft | 211 kts | 191° |
| 2026-05-05 22:56 | 36.13498 | -115.02429 | 6880 ft | 182 kts | 209° |
| 2026-05-05 22:56 | 36.12494 | -115.03251 | 7513 ft | 168 kts | 219° |
| 2026-05-05 22:56 | 36.11682 | -115.04257 | 8097 ft | 164 kts | 229° |
| 2026-05-05 22:57 | 36.11067 | -115.05436 | 8661 ft | 163 kts | 239° |
| 2026-05-05 22:57 | 36.10664 | -115.06743 | 9218 ft | 164 kts | 250° |
| 2026-05-05 22:57 | 36.10439 | -115.08118 | 9769 ft | 160 kts | 246° |
| 2026-05-05 22:57 | 36.09742 | -115.09085 | 10234 ft | 153 kts | 202° |
| 2026-05-05 22:58 | 36.08699 | -115.09158 | 10723 ft | 153 kts | 182° |
| 2026-05-05 22:58 | 36.07653 | -115.09285 | 11200 ft | 150 kts | 193° |
| 2026-05-05 22:58 | 36.06629 | -115.09530 | 11683 ft | 150 kts | 194° |
| 2026-05-05 22:58 | 36.05611 | -115.09775 | 12140 ft | 149 kts | 194° |
| 2026-05-05 22:59 | 36.04589 | -115.10017 | 12619 ft | 149 kts | 195° |
| 2026-05-05 22:59 | 36.03568 | -115.10261 | 13080 ft | 149 kts | 195° |
| 2026-05-05 22:59 | 36.02549 | -115.10501 | 13583 ft | 149 kts | 195° |
| 2026-05-05 22:59 | 36.01533 | -115.10746 | 14017 ft | 148 kts | 195° |
| 2026-05-05 23:00 | 35.99512 | -115.11228 | 14837 ft | 147 kts | 197° |
| 2026-05-05 23:00 | 35.98509 | -115.11471 | 15246 ft | 146 kts | 197° |
| 2026-05-05 23:00 | 35.97516 | -115.11708 | 15682 ft | 145 kts | 197° |
| 2026-05-05 23:01 | 35.96528 | -115.11945 | 16116 ft | 144 kts | 198° |
| 2026-05-05 23:01 | 35.95554 | -115.12184 | 16540 ft | 141 kts | 198° |
| 2026-05-05 23:01 | 35.94589 | -115.12413 | 16911 ft | 144 kts | 198° |
| 2026-05-05 23:01 | 35.93528 | -115.12678 | 16931 ft | 166 kts | 198° |
| 2026-05-05 23:02 | 35.92321 | -115.12969 | 16932 ft | 188 kts | 197° |
| 2026-05-05 23:02 | 35.90967 | -115.13293 | 16934 ft | 208 kts | 196° |
| 2026-05-05 23:02 | 35.89485 | -115.13644 | 16932 ft | 224 kts | 196° |
| 2026-05-05 23:02 | 35.87916 | -115.14015 | 16923 ft | 235 kts | 196° |
| 2026-05-05 23:03 | 35.86273 | -115.14408 | 16927 ft | 245 kts | 195° |
| 2026-05-05 23:03 | 35.84572 | -115.14813 | 16927 ft | 252 kts | 195° |
| 2026-05-05 23:03 | 35.82832 | -115.15228 | 16909 ft | 257 kts | 195° |
| 2026-05-05 23:03 | 35.81063 | -115.15647 | 16908 ft | 261 kts | 195° |
| 2026-05-05 23:04 | 35.79273 | -115.16074 | 16909 ft | 263 kts | 195° |
| 2026-05-05 23:04 | 35.77462 | -115.16477 | 16897 ft | 266 kts | 192° |
| 2026-05-05 23:04 | 35.75599 | -115.16547 | 16902 ft | 269 kts | 184° |
| 2026-05-05 23:04 | 35.73726 | -115.16566 | 16901 ft | 269 kts | 186° |
| 2026-05-05 23:05 | 35.71854 | -115.16618 | 16901 ft | 269 kts | 186° |
| 2026-05-05 23:05 | 35.69977 | -115.16658 | 16902 ft | 270 kts | 186° |
| 2026-05-05 23:05 | 35.68092 | -115.16687 | 16904 ft | 271 kts | 186° |
| 2026-05-05 23:05 | 35.66198 | -115.16716 | 16904 ft | 272 kts | 186° |
| 2026-05-05 23:06 | 35.64306 | -115.16747 | 16898 ft | 273 kts | 186° |
| 2026-05-05 23:06 | 35.62425 | -115.16786 | 16898 ft | 275 kts | 186° |
| 2026-05-05 23:06 | 35.60516 | -115.16820 | 16883 ft | 273 kts | 185° |
| 2026-05-05 23:06 | 35.58643 | -115.16847 | 16898 ft | 266 kts | 186° |
| 2026-05-05 23:07 | 35.56802 | -115.16879 | 16888 ft | 263 kts | 186° |
| 2026-05-05 23:07 | 35.54976 | -115.16916 | 16882 ft | 262 kts | 186° |
| 2026-05-05 23:07 | 35.53153 | -115.16949 | 16889 ft | 263 kts | 186° |
| 2026-05-05 23:07 | 35.51321 | -115.16980 | 16883 ft | 263 kts | 186° |
| 2026-05-05 23:08 | 35.49492 | -115.17012 | 16877 ft | 263 kts | 186° |
| 2026-05-05 23:08 | 35.47661 | -115.17044 | 16885 ft | 263 kts | 186° |
| 2026-05-05 23:08 | 35.45828 | -115.17077 | 16880 ft | 263 kts | 186° |
| 2026-05-05 23:08 | 35.43990 | -115.17108 | 16878 ft | 264 kts | 186° |
| 2026-05-05 23:09 | 35.42158 | -115.17140 | 16879 ft | 264 kts | 186° |
| 2026-05-05 23:09 | 35.40323 | -115.17173 | 16891 ft | 264 kts | 186° |
| 2026-05-05 23:09 | 35.38482 | -115.17203 | 16889 ft | 264 kts | 186° |
| 2026-05-05 23:09 | 35.36644 | -115.17237 | 16890 ft | 264 kts | 186° |
| 2026-05-05 23:10 | 35.34804 | -115.17268 | 16885 ft | 265 kts | 186° |
| 2026-05-05 23:10 | 35.32962 | -115.17298 | 16889 ft | 264 kts | 186° |
| 2026-05-05 23:10 | 35.31123 | -115.17331 | 16881 ft | 265 kts | 186° |
| 2026-05-05 23:10 | 35.29278 | -115.17363 | 16881 ft | 265 kts | 186° |
| 2026-05-05 23:11 | 35.27435 | -115.17394 | 16866 ft | 265 kts | 186° |
| 2026-05-05 23:11 | 35.25588 | -115.17426 | 16881 ft | 265 kts | 186° |
| 2026-05-05 23:11 | 35.23741 | -115.17458 | 16879 ft | 266 kts | 186° |
| 2026-05-05 23:11 | 35.21896 | -115.17491 | 16876 ft | 265 kts | 186° |
| 2026-05-05 23:12 | 35.20054 | -115.17566 | 16872 ft | 263 kts | 191° |
| 2026-05-05 23:12 | 35.18281 | -115.18040 | 16864 ft | 260 kts | 201° |
| 2026-05-05 23:12 | 35.16634 | -115.18915 | 16858 ft | 257 kts | 211° |
| 2026-05-05 23:12 | 35.15169 | -115.20148 | 16868 ft | 255 kts | 221° |
| 2026-05-05 23:13 | 35.13933 | -115.21691 | 16866 ft | 255 kts | 231° |
| 2026-05-05 23:13 | 35.12958 | -115.23497 | 16864 ft | 255 kts | 241° |
| 2026-05-05 23:13 | 35.12280 | -115.25505 | 16870 ft | 257 kts | 251° |
| 2026-05-05 23:13 | 35.11922 | -115.27645 | 16867 ft | 259 kts | 259° |
| 2026-05-05 23:14 | 35.11671 | -115.29826 | 16872 ft | 259 kts | 258° |
| 2026-05-05 23:14 | 35.11400 | -115.32005 | 16877 ft | 260 kts | 258° |
| 2026-05-05 23:14 | 35.11138 | -115.34163 | 16872 ft | 260 kts | 259° |
| 2026-05-05 23:14 | 35.10876 | -115.36355 | 16871 ft | 259 kts | 259° |
| 2026-05-05 23:15 | 35.10613 | -115.38535 | 16880 ft | 259 kts | 259° |
| 2026-05-05 23:15 | 35.10349 | -115.40716 | 16885 ft | 260 kts | 259° |
| 2026-05-05 23:15 | 35.10085 | -115.42896 | 16888 ft | 260 kts | 259° |
| 2026-05-05 23:15 | 35.09821 | -115.45082 | 16888 ft | 260 kts | 259° |
| 2026-05-05 23:16 | 35.09556 | -115.47267 | 16890 ft | 260 kts | 259° |
| 2026-05-05 23:16 | 35.09290 | -115.49456 | 16885 ft | 261 kts | 259° |
| 2026-05-05 23:16 | 35.09023 | -115.51645 | 16893 ft | 260 kts | 259° |
| 2026-05-05 23:16 | 35.08755 | -115.53838 | 16889 ft | 261 kts | 259° |
| 2026-05-05 23:17 | 35.08492 | -115.56002 | 16893 ft | 261 kts | 259° |
| 2026-05-05 23:17 | 35.08250 | -115.57972 | 16890 ft | 262 kts | 259° |
| 2026-05-05 23:17 | 35.07973 | -115.60239 | 16890 ft | 262 kts | 259° |
| 2026-05-05 23:17 | 35.07704 | -115.62438 | 16891 ft | 262 kts | 259° |
| 2026-05-05 23:18 | 35.07435 | -115.64632 | 16886 ft | 262 kts | 259° |
| 2026-05-05 23:18 | 35.07165 | -115.66830 | 16896 ft | 262 kts | 259° |
| 2026-05-05 23:18 | 35.06894 | -115.69026 | 16892 ft | 262 kts | 259° |
| 2026-05-05 23:18 | 35.06622 | -115.71233 | 16892 ft | 262 kts | 259° |
| 2026-05-05 23:19 | 35.06349 | -115.73437 | 16889 ft | 262 kts | 259° |
| 2026-05-05 23:19 | 35.06077 | -115.75638 | 16889 ft | 263 kts | 259° |
| 2026-05-05 23:19 | 35.05805 | -115.77844 | 16887 ft | 263 kts | 259° |
| 2026-05-05 23:19 | 35.05533 | -115.80050 | 16883 ft | 263 kts | 259° |
| 2026-05-05 23:20 | 35.05258 | -115.82251 | 16886 ft | 261 kts | 259° |
| 2026-05-05 23:20 | 35.04983 | -115.84455 | 16882 ft | 263 kts | 259° |
| 2026-05-05 23:20 | 35.04708 | -115.86662 | 16879 ft | 264 kts | 259° |
| 2026-05-05 23:20 | 35.04433 | -115.88874 | 16881 ft | 263 kts | 259° |
| 2026-05-05 23:21 | 35.04155 | -115.91087 | 16877 ft | 263 kts | 259° |
| 2026-05-05 23:21 | 35.03876 | -115.93306 | 16880 ft | 264 kts | 259° |
| 2026-05-05 23:21 | 35.03599 | -115.95524 | 16880 ft | 265 kts | 259° |
| 2026-05-05 23:21 | 35.03320 | -115.97743 | 16879 ft | 265 kts | 259° |
| 2026-05-05 23:22 | 35.03043 | -115.99935 | 16873 ft | 265 kts | 259° |
| 2026-05-05 23:22 | 35.02761 | -116.02181 | 16876 ft | 265 kts | 259° |
| 2026-05-05 23:22 | 35.02479 | -116.04401 | 16876 ft | 265 kts | 259° |
| 2026-05-05 23:22 | 35.02202 | -116.06593 | 16877 ft | 265 kts | 259° |
| 2026-05-05 23:23 | 35.01921 | -116.08820 | 16873 ft | 265 kts | 259° |
| 2026-05-05 23:23 | 35.01637 | -116.11048 | 16874 ft | 266 kts | 259° |
| 2026-05-05 23:23 | 35.01356 | -116.13273 | 16874 ft | 266 kts | 259° |
| 2026-05-05 23:23 | 35.01072 | -116.15504 | 16871 ft | 265 kts | 259° |
| 2026-05-05 23:24 | 35.00790 | -116.17726 | 16871 ft | 265 kts | 259° |
| 2026-05-05 23:24 | 35.00397 | -116.19923 | 16869 ft | 265 kts | 254° |
| 2026-05-05 23:24 | 34.99937 | -116.22099 | 16870 ft | 265 kts | 254° |
| 2026-05-05 23:24 | 34.99492 | -116.24281 | 16872 ft | 266 kts | 255° |
| 2026-05-05 23:25 | 34.99046 | -116.26469 | 16874 ft | 265 kts | 255° |
| 2026-05-05 23:25 | 34.98596 | -116.28648 | 16871 ft | 264 kts | 255° |
| 2026-05-05 23:25 | 34.98148 | -116.30818 | 16872 ft | 263 kts | 255° |
| 2026-05-05 23:25 | 34.97702 | -116.32982 | 16871 ft | 263 kts | 255° |
| 2026-05-05 23:26 | 34.97260 | -116.35141 | 16875 ft | 262 kts | 255° |
| 2026-05-05 23:26 | 34.96820 | -116.37309 | 16877 ft | 263 kts | 255° |
| 2026-05-05 23:26 | 34.96384 | -116.39439 | 16882 ft | 262 kts | 255° |
| 2026-05-05 23:26 | 34.95942 | -116.41588 | 16878 ft | 261 kts | 255° |
| 2026-05-05 23:27 | 34.95504 | -116.43733 | 16886 ft | 262 kts | 255° |
| 2026-05-05 23:27 | 34.95063 | -116.45882 | 16888 ft | 262 kts | 255° |
| 2026-05-05 23:27 | 34.94620 | -116.48035 | 16893 ft | 260 kts | 255° |
| 2026-05-05 23:27 | 34.94179 | -116.50179 | 16896 ft | 261 kts | 255° |
| 2026-05-05 23:28 | 34.93737 | -116.52329 | 16898 ft | 262 kts | 255° |
| 2026-05-05 23:28 | 34.93294 | -116.54478 | 16900 ft | 261 kts | 254° |
| 2026-05-05 23:28 | 34.92853 | -116.56615 | 16907 ft | 259 kts | 255° |
| 2026-05-05 23:28 | 34.92414 | -116.58747 | 16908 ft | 260 kts | 254° |
| 2026-05-05 23:29 | 34.91972 | -116.60883 | 16909 ft | 260 kts | 255° |
| 2026-05-05 23:29 | 34.91536 | -116.62991 | 16914 ft | 260 kts | 255° |
| 2026-05-05 23:29 | 34.91095 | -116.65124 | 16918 ft | 260 kts | 255° |
| 2026-05-05 23:29 | 34.90653 | -116.67259 | 16923 ft | 259 kts | 255° |
| 2026-05-05 23:30 | 34.90213 | -116.69382 | 16925 ft | 258 kts | 255° |
| 2026-05-05 23:30 | 34.89772 | -116.71506 | 16926 ft | 258 kts | 255° |
| 2026-05-05 23:30 | 34.89332 | -116.73630 | 16925 ft | 259 kts | 255° |
| 2026-05-05 23:30 | 34.88892 | -116.75752 | 16926 ft | 257 kts | 255° |
| 2026-05-05 23:31 | 34.88453 | -116.77860 | 16925 ft | 258 kts | 254° |
| 2026-05-05 23:31 | 34.88012 | -116.79977 | 16928 ft | 258 kts | 255° |
| 2026-05-05 23:31 | 34.87571 | -116.82096 | 16924 ft | 258 kts | 254° |
| 2026-05-05 23:31 | 34.87128 | -116.84218 | 16927 ft | 259 kts | 255° |
| 2026-05-05 23:32 | 34.86690 | -116.86315 | 16927 ft | 259 kts | 255° |
| 2026-05-05 23:32 | 34.86247 | -116.88433 | 16926 ft | 258 kts | 255° |
| 2026-05-05 23:32 | 34.85806 | -116.90546 | 16926 ft | 258 kts | 255° |
| 2026-05-05 23:32 | 34.85361 | -116.92669 | 16925 ft | 259 kts | 255° |
| 2026-05-05 23:33 | 34.84915 | -116.94791 | 16923 ft | 259 kts | 255° |
| 2026-05-05 23:33 | 34.84469 | -116.96918 | 16920 ft | 260 kts | 255° |
| 2026-05-05 23:33 | 34.84022 | -116.99048 | 16917 ft | 259 kts | 255° |
| 2026-05-05 23:33 | 34.83575 | -117.01173 | 16914 ft | 258 kts | 254° |
| 2026-05-05 23:34 | 34.83129 | -117.03289 | 16915 ft | 257 kts | 255° |
| 2026-05-05 23:34 | 34.82682 | -117.05411 | 16914 ft | 260 kts | 255° |
| 2026-05-05 23:34 | 34.82233 | -117.07537 | 16910 ft | 260 kts | 255° |
| 2026-05-05 23:34 | 34.81801 | -117.09581 | 16912 ft | 260 kts | 255° |
| 2026-05-05 23:35 | 34.81350 | -117.11720 | 16908 ft | 261 kts | 255° |
| 2026-05-05 23:35 | 34.80897 | -117.13859 | 16906 ft | 262 kts | 255° |
| 2026-05-05 23:35 | 34.80448 | -117.15981 | 16932 ft | 262 kts | 255° |
| 2026-05-05 23:35 | 34.79992 | -117.18136 | 16935 ft | 263 kts | 255° |
| 2026-05-05 23:36 | 34.79535 | -117.20290 | 16945 ft | 263 kts | 255° |
| 2026-05-05 23:36 | 34.79111 | -117.22294 | 16950 ft | 264 kts | 255° |
| 2026-05-05 23:36 | 34.78652 | -117.24454 | 16954 ft | 264 kts | 255° |
| 2026-05-05 23:36 | 34.78193 | -117.26615 | 16958 ft | 263 kts | 255° |
| 2026-05-05 23:37 | 34.77736 | -117.28764 | 16960 ft | 261 kts | 255° |
| 2026-05-05 23:37 | 34.77280 | -117.30907 | 16963 ft | 263 kts | 255° |
| 2026-05-05 23:37 | 34.76819 | -117.33065 | 16970 ft | 264 kts | 255° |
| 2026-05-05 23:37 | 34.76360 | -117.35220 | 16971 ft | 262 kts | 255° |
| 2026-05-05 23:38 | 34.75901 | -117.37371 | 16975 ft | 264 kts | 255° |
| 2026-05-05 23:38 | 34.75439 | -117.39533 | 16980 ft | 264 kts | 255° |
| 2026-05-05 23:38 | 34.74977 | -117.41695 | 16977 ft | 264 kts | 255° |
| 2026-05-05 23:38 | 34.74511 | -117.43870 | 16974 ft | 266 kts | 255° |
| 2026-05-05 23:39 | 34.74044 | -117.46046 | 16973 ft | 266 kts | 255° |
| 2026-05-05 23:39 | 34.73575 | -117.48228 | 16977 ft | 267 kts | 255° |
| 2026-05-05 23:39 | 34.73107 | -117.50412 | 16972 ft | 267 kts | 255° |
| 2026-05-05 23:39 | 34.72639 | -117.52590 | 16972 ft | 267 kts | 255° |
| 2026-05-05 23:40 | 34.72169 | -117.54777 | 16971 ft | 267 kts | 255° |
| 2026-05-05 23:40 | 34.71698 | -117.56962 | 16966 ft | 267 kts | 255° |
| 2026-05-05 23:40 | 34.71227 | -117.59151 | 16964 ft | 268 kts | 255° |
| 2026-05-05 23:40 | 34.70753 | -117.61347 | 16960 ft | 270 kts | 255° |
| 2026-05-05 23:41 | 34.70278 | -117.63549 | 16957 ft | 269 kts | 255° |
| 2026-05-05 23:41 | 34.69962 | -117.65010 | 16935 ft | 270 kts | 255° |
| 2026-05-05 23:41 | 34.69326 | -117.67948 | 16605 ft | 272 kts | 255° |
| 2026-05-05 23:41 | 34.68845 | -117.70172 | 16325 ft | 271 kts | 255° |
| 2026-05-05 23:42 | 34.68368 | -117.72378 | 16326 ft | 269 kts | 255° |
| 2026-05-05 23:42 | 34.67891 | -117.74581 | 16319 ft | 271 kts | 255° |
| 2026-05-05 23:42 | 34.67412 | -117.76787 | 16306 ft | 270 kts | 255° |
| 2026-05-05 23:42 | 34.66932 | -117.78996 | 16329 ft | 270 kts | 255° |
| 2026-05-05 23:43 | 34.66454 | -117.81201 | 16336 ft | 270 kts | 255° |
| 2026-05-05 23:43 | 34.66131 | -117.82686 | 16336 ft | 270 kts | 255° |
| 2026-05-05 23:43 | 34.65651 | -117.84889 | 16342 ft | 270 kts | 255° |
| 2026-05-05 23:43 | 34.65098 | -117.87064 | 16338 ft | 270 kts | 248° |
| 2026-05-05 23:44 | 34.64330 | -117.89143 | 16333 ft | 270 kts | 246° |
| 2026-05-05 23:44 | 34.63581 | -117.91237 | 16324 ft | 271 kts | 247° |
| 2026-05-05 23:44 | 34.62840 | -117.93350 | 16320 ft | 272 kts | 247° |
| 2026-05-05 23:44 | 34.62080 | -117.95483 | 15766 ft | 288 kts | 247° |
| 2026-05-05 23:45 | 34.61241 | -117.97810 | 14903 ft | 296 kts | 247° |
| 2026-05-05 23:45 | 34.60476 | -117.99936 | 14080 ft | 265 kts | 248° |
| 2026-05-05 23:45 | 34.59770 | -118.01911 | 13189 ft | 247 kts | 248° |
| 2026-05-05 23:45 | 34.59105 | -118.03777 | 12284 ft | 236 kts | 248° |
| 2026-05-05 23:46 | 34.58462 | -118.05572 | 11410 ft | 233 kts | 248° |
| 2026-05-05 23:46 | 34.57781 | -118.07477 | 10588 ft | 260 kts | 248° |
| 2026-05-05 23:46 | 34.57034 | -118.09559 | 10352 ft | 277 kts | 248° |
| 2026-05-05 23:46 | 34.56249 | -118.11740 | 10030 ft | 286 kts | 248° |
| 2026-05-05 23:47 | 34.55450 | -118.13961 | 9669 ft | 287 kts | 248° |
| 2026-05-05 23:47 | 34.54656 | -118.16168 | 9313 ft | 284 kts | 248° |
| 2026-05-05 23:47 | 34.53868 | -118.18358 | 8968 ft | 281 kts | 248° |
| 2026-05-05 23:47 | 34.53089 | -118.20519 | 8634 ft | 277 kts | 248° |
| 2026-05-05 23:48 | 34.52205 | -118.22590 | 8292 ft | 277 kts | 237° |
| 2026-05-05 23:48 | 34.50916 | -118.24326 | 7997 ft | 277 kts | 223° |
| 2026-05-05 23:48 | 34.49314 | -118.25618 | 7983 ft | 279 kts | 209° |
| 2026-05-05 23:48 | 34.47481 | -118.26398 | 7981 ft | 281 kts | 196° |
| 2026-05-05 23:49 | 34.45591 | -118.26969 | 7980 ft | 280 kts | 197° |
| 2026-05-05 23:49 | 34.43702 | -118.27569 | 8006 ft | 281 kts | 196° |
| 2026-05-05 23:49 | 34.41811 | -118.28175 | 8011 ft | 281 kts | 197° |
| 2026-05-05 23:49 | 34.39922 | -118.28772 | 8015 ft | 281 kts | 196° |
| 2026-05-05 23:50 | 34.38027 | -118.29364 | 8019 ft | 281 kts | 196° |
| 2026-05-05 23:50 | 34.36140 | -118.29955 | 7984 ft | 281 kts | 197° |
| 2026-05-05 23:50 | 34.34277 | -118.30543 | 7714 ft | 283 kts | 197° |
| 2026-05-05 23:50 | 34.32379 | -118.31140 | 7513 ft | 280 kts | 196° |
| 2026-05-05 23:51 | 34.30483 | -118.31480 | 7501 ft | 270 kts | 185° |
| 2026-05-05 23:51 | 34.28691 | -118.31633 | 7203 ft | 257 kts | 186° |
| 2026-05-05 23:51 | 34.26908 | -118.31672 | 6990 ft | 249 kts | 174° |
| 2026-05-05 23:51 | 34.25211 | -118.31266 | 6988 ft | 249 kts | 170° |
| 2026-05-05 23:52 | 34.23513 | -118.30877 | 6990 ft | 250 kts | 171° |
| 2026-05-05 23:52 | 34.21807 | -118.30494 | 6992 ft | 249 kts | 170° |
| 2026-05-05 23:52 | 34.20167 | -118.29821 | 6983 ft | 251 kts | 153° |
| 2026-05-05 23:52 | 34.18617 | -118.28833 | 6987 ft | 252 kts | 155° |
| 2026-05-05 23:53 | 34.17029 | -118.28009 | 6989 ft | 252 kts | 158° |
| 2026-05-05 23:53 | 34.15421 | -118.27154 | 6988 ft | 253 kts | 155° |
| 2026-05-05 23:53 | 34.13834 | -118.26244 | 6905 ft | 253 kts | 154° |
| 2026-05-05 23:53 | 34.12267 | -118.25348 | 6496 ft | 242 kts | 155° |
| 2026-05-05 23:54 | 34.10785 | -118.24519 | 6007 ft | 226 kts | 156° |
| 2026-05-05 23:54 | 34.09437 | -118.23765 | 5753 ft | 206 kts | 156° |
| 2026-05-05 23:54 | 34.08163 | -118.23049 | 5580 ft | 199 kts | 156° |
| 2026-05-05 23:54 | 34.06912 | -118.22343 | 5351 ft | 198 kts | 156° |
| 2026-05-05 23:55 | 34.05668 | -118.21646 | 5098 ft | 196 kts | 156° |
| 2026-05-05 23:55 | 34.04434 | -118.20955 | 4848 ft | 194 kts | 156° |
| 2026-05-05 23:55 | 34.03205 | -118.20283 | 4591 ft | 192 kts | 161° |
| 2026-05-05 23:55 | 34.01897 | -118.20216 | 4353 ft | 190 kts | 198° |
| 2026-05-05 23:56 | 34.00890 | -118.21079 | 4239 ft | 167 kts | 230° |
| 2026-05-05 23:56 | 34.00194 | -118.22115 | 4057 ft | 152 kts | 231° |
| 2026-05-05 23:56 | 33.99494 | -118.22974 | 3693 ft | 144 kts | 221° |
| 2026-05-05 23:56 | 33.98743 | -118.23711 | 3371 ft | 137 kts | 221° |
| 2026-05-05 23:57 | 33.97987 | -118.24420 | 3022 ft | 136 kts | 219° |
| 2026-05-05 23:57 | 33.97198 | -118.25070 | 2685 ft | 136 kts | 215° |
| 2026-05-05 23:57 | 33.96398 | -118.25666 | 2402 ft | 128 kts | 216° |
| 2026-05-05 23:57 | 33.95633 | -118.26229 | 2063 ft | 126 kts | 214° |
| 2026-05-05 23:58 | 33.94914 | -118.26790 | 1935 ft | 112 kts | 223° |
| 2026-05-05 23:58 | 33.94410 | -118.27409 | 1734 ft | 95 kts | 242° |
| 2026-05-05 23:58 | 33.94317 | -118.28127 | 1656 ft | 85 kts | 269° |
| 2026-05-05 23:58 | 33.94325 | -118.28451 | 1603 ft | 88 kts | 271° |
| 2026-05-05 23:59 | 33.94361 | -118.29196 | 1544 ft | 94 kts | 272° |
| 2026-05-05 23:59 | 33.94427 | -118.29997 | 1444 ft | 96 kts | 274° |
| 2026-05-05 23:59 | 33.94446 | -118.30818 | 1317 ft | 100 kts | 267° |
| 2026-05-05 23:59 | 33.94398 | -118.31610 | 1227 ft | 98 kts | 260° |
| 2026-05-06 00:00 | 33.94311 | -118.32427 | 1082 ft | 98 kts | 262° |
| 2026-05-06 00:00 | 33.94233 | -118.33251 | 922 ft | 101 kts | 262° |
| 2026-05-06 00:00 | 33.94151 | -118.34090 | 832 ft | 100 kts | 262° |
| 2026-05-06 00:00 | 33.94069 | -118.34905 | 696 ft | 97 kts | 263° |
| 2026-05-06 00:01 | 33.93985 | -118.35705 | 559 ft | 97 kts | 262° |
| 2026-05-06 00:01 | 33.93915 | -118.36506 | 420 ft | 97 kts | 265° |
| 2026-05-06 00:01 | 33.93839 | -118.37288 | 341 ft | 94 kts | 259° |
| 2026-05-06 00:01 | 33.93752 | -118.38088 | 213 ft | 98 kts | 258° |
| 2026-05-06 00:02 | 33.93685 | -118.38860 | 109 ft | 77 kts | 257° |
| 2026-05-06 00:02 | 33.93625 | -118.39364 | 103 ft | 45 kts | 263° |
| 2026-05-06 00:02 | 33.93598 | -118.39673 | 104 ft | 32 kts | 264° |
| 2026-05-06 00:02 | 33.93570 | -118.39916 | 106 ft | 27 kts | 260° |
| 2026-05-06 00:03 | 33.93525 | -118.40116 | 106 ft | 27 kts | 246° |
| 2026-05-06 00:03 | 33.93444 | -118.40199 | 98 ft | 10 kts | 150° |
| 2026-05-06 00:03 | 33.93425 | -118.40164 | 95 ft | 0 kts | 94° |
| 2026-05-06 00:04 | 33.93426 | -118.40126 | 95 ft | 10 kts | 85° |
| 2026-05-06 00:04 | 33.93436 | -118.40014 | 95 ft | 17 kts | 80° |
| 2026-05-06 00:04 | 33.93453 | -118.39863 | 95 ft | 15 kts | 84° |
| 2026-05-06 00:04 | 33.93464 | -118.39754 | 95 ft | 18 kts | 88° |
| 2026-05-06 00:05 | 33.93478 | -118.39390 | 93 ft | 14 kts | 159° |
| 2026-05-06 00:05 | 33.93430 | -118.39441 | 91 ft | 11 kts | 269° |
| 2026-05-06 00:05 | 33.93393 | -118.39473 | 91 ft | 2 kts | 358° |